Pinsonfork, Kentucky
Current Conditions -  °F | °C
As of 7:15 PM on Wednesday 28 Jan 2015 (Local Time) from KPBX Reporting Station
Clear Clear  
Wind Chill: 23°   Ceiling: Unl
Heat Index: 29°   Visibility: 10mi
Dew Point: 19°   Wind: 6mph
Humidity: 68%   Direction: 50°NE
Pressure: 30.25"   Gusts: NA
Location:  37.55°N, 82.26°W
Report Text: KPBX 290015Z AUTO 05005KT 10SM CLR M02/M07 A3025 RMK AO2 T10181070
Loading
Personal Weather Stations






























Interactive Weather Map New forecast layout! Learn more

10-Day Weather Forecast

Advertisements
Track Severe Weather on mobile